createdAt,value
2019-03-21T00:01:53.335Z,26.40
2019-03-21T00:04:33.449Z,28.50
2019-03-21T00:07:13.414Z,27.60
2019-03-21T00:09:53.518Z,26.97
2019-03-21T00:12:33.416Z,29.23
2019-03-21T00:15:13.421Z,32.33
2019-03-21T00:17:53.789Z,30.50
2019-03-21T00:20:33.758Z,31.03
2019-03-21T00:23:13.743Z,36.03
2019-03-21T00:25:53.642Z,27.00
2019-03-21T00:28:33.659Z,25.23
2019-03-21T00:31:13.795Z,35.47
2019-03-21T00:33:53.929Z,30.93
2019-03-21T00:36:33.800Z,26.63
2019-03-21T00:39:13.729Z,26.10
2019-03-21T00:41:53.681Z,27.83
2019-03-21T00:44:33.556Z,27.83
2019-03-21T00:47:13.686Z,26.47
2019-03-21T00:49:53.882Z,30.00
2019-03-21T00:52:33.846Z,29.63
2019-03-21T00:55:13.829Z,29.57
2019-03-21T00:57:53.996Z,30.43
2019-03-21T01:00:34.260Z,34.73
2019-03-21T01:03:13.960Z,27.63
2019-03-21T01:05:53.851Z,31.23
2019-03-21T01:08:34.042Z,27.47
2019-03-21T01:11:13.954Z,32.97
2019-03-21T01:13:53.979Z,33.37
2019-03-21T01:16:33.782Z,32.67
2019-03-21T01:19:13.819Z,35.60
2019-03-21T01:21:53.742Z,30.57
2019-03-21T01:24:33.668Z,31.57
2019-03-21T01:27:13.693Z,29.97
2019-03-21T01:29:53.715Z,30.33
2019-03-21T01:32:33.865Z,34.03
2019-03-21T01:35:13.757Z,30.33
2019-03-21T01:37:53.889Z,38.90
2019-03-21T01:40:33.972Z,35.33
2019-03-21T01:43:13.946Z,30.43
2019-03-21T01:45:54.139Z,33.30
2019-03-21T01:48:34.209Z,32.43
2019-03-21T01:51:14.284Z,31.33
2019-03-21T01:53:54.574Z,37.40
2019-03-21T01:56:34.342Z,32.13
2019-03-21T01:59:14.407Z,34.93
2019-03-21T02:01:54.163Z,35.43
2019-03-21T02:04:34.115Z,29.73
2019-03-21T02:07:14.083Z,40.77
2019-03-21T02:09:54.086Z,34.50
2019-03-21T02:12:34.388Z,40.77
2019-03-21T02:15:14.276Z,35.30
2019-03-21T02:17:54.254Z,43.30
2019-03-21T02:20:34.323Z,41.80
2019-03-21T02:23:14.306Z,42.23
2019-03-21T02:25:54.295Z,40.77
2019-03-21T02:28:34.279Z,40.40
2019-03-21T02:31:14.301Z,37.63
2019-03-21T02:33:54.664Z,40.83
2019-03-21T02:36:34.658Z,32.13
2019-03-21T02:39:14.674Z,38.03
2019-03-21T02:41:54.670Z,39.67
2019-03-21T02:44:34.744Z,39.70
2019-03-21T02:47:14.426Z,36.53
2019-03-21T02:49:54.190Z,34.70
2019-03-21T02:52:34.212Z,39.40
2019-03-21T02:55:14.294Z,39.53
2019-03-21T02:57:54.194Z,36.70
2019-03-21T03:00:34.280Z,38.97
2019-03-21T03:03:14.362Z,43.30
2019-03-21T03:05:54.402Z,47.37
2019-03-21T03:08:34.376Z,41.27
2019-03-21T03:11:14.219Z,41.20
2019-03-21T03:13:54.225Z,42.00
2019-03-21T03:16:34.444Z,44.50
2019-03-21T03:19:14.521Z,41.57
2019-03-21T03:21:54.728Z,40.93
2019-03-21T03:24:34.670Z,46.00
2019-03-21T03:27:14.715Z,42.90
2019-03-21T03:29:54.721Z,42.77
2019-03-21T03:32:34.612Z,48.70
2019-03-21T03:35:14.654Z,46.50
2019-03-21T03:37:54.806Z,42.03
2019-03-21T03:40:34.622Z,46.23
2019-03-21T03:43:14.893Z,48.67
2019-03-21T03:45:54.920Z,43.57
2019-03-21T03:48:34.978Z,47.67
2019-03-21T03:51:14.845Z,44.93
2019-03-21T03:53:54.919Z,47.17
2019-03-21T03:56:34.835Z,50.17
2019-03-21T03:59:14.993Z,51.60
2019-03-21T04:01:54.893Z,52.60
2019-03-21T04:04:35.069Z,42.97
2019-03-21T04:07:15.140Z,48.63
2019-03-21T04:09:55.262Z,44.73
2019-03-21T04:12:35.235Z,46.80
2019-03-21T04:15:15.295Z,48.50
2019-03-21T04:17:55.285Z,48.00
2019-03-21T04:20:35.160Z,49.23
2019-03-21T04:23:15.153Z,48.33
2019-03-21T04:25:55.372Z,47.63
2019-03-21T04:28:35.054Z,45.00
2019-03-21T04:31:15.241Z,44.97
2019-03-21T04:33:54.999Z,48.37
2019-03-21T04:36:34.993Z,46.77
2019-03-21T04:39:14.982Z,43.93
2019-03-21T04:41:54.746Z,42.40
2019-03-21T04:44:34.772Z,45.83
2019-03-21T04:47:14.925Z,50.67
2019-03-21T04:49:54.973Z,43.60
2019-03-21T04:52:35.066Z,41.60
2019-03-21T04:55:14.961Z,41.33
2019-03-21T04:57:55.161Z,40.73
2019-03-21T05:00:35.128Z,43.80
2019-03-21T05:03:15.037Z,44.83
2019-03-21T05:05:55.223Z,40.97
2019-03-21T05:08:35.429Z,48.63
2019-03-21T05:11:15.419Z,39.53
2019-03-21T05:13:55.283Z,43.93
2019-03-21T05:16:35.394Z,41.83
2019-03-21T05:19:15.431Z,40.90
2019-03-21T05:21:55.239Z,42.30
2019-03-21T05:24:35.407Z,43.80
2019-03-21T05:27:15.532Z,41.53
2019-03-21T05:29:55.575Z,37.17
2019-03-21T05:32:35.654Z,37.23
2019-03-21T05:35:15.624Z,36.83
2019-03-21T05:37:55.602Z,38.30
2019-03-21T05:40:35.644Z,40.30
2019-03-21T05:43:15.626Z,39.60
2019-03-21T05:45:55.553Z,34.03
2019-03-21T05:48:35.404Z,39.97
2019-03-21T05:51:15.678Z,41.07
2019-03-21T05:53:55.701Z,36.90
2019-03-21T05:56:35.771Z,33.70
2019-03-21T05:59:15.537Z,32.23
2019-03-21T06:01:55.660Z,32.60
2019-03-21T06:04:35.713Z,34.23
2019-03-21T06:07:15.555Z,38.20
2019-03-21T06:09:55.753Z,36.37
2019-03-21T06:12:35.868Z,29.93
2019-03-21T06:15:15.853Z,35.57
2019-03-21T06:17:55.919Z,32.93
2019-03-21T06:20:36.160Z,39.07
2019-03-21T06:23:16.098Z,36.27
2019-03-21T06:25:56.113Z,35.73
2019-03-21T06:28:36.168Z,38.63
2019-03-21T06:31:16.345Z,33.37
2019-03-21T06:33:56.438Z,38.00
2019-03-21T06:36:36.552Z,36.23
2019-03-21T06:39:16.709Z,33.03
2019-03-21T06:41:56.545Z,37.00
2019-03-21T06:44:36.561Z,32.17
2019-03-21T06:47:16.665Z,36.73
2019-03-21T06:49:56.715Z,35.33
2019-03-21T06:52:37.065Z,38.07
2019-03-21T06:55:17.173Z,42.00
2019-03-21T06:57:57.230Z,35.20
2019-03-21T07:00:37.182Z,35.57
2019-03-21T07:03:17.519Z,38.00
2019-03-21T07:05:57.647Z,34.23
2019-03-21T07:08:37.636Z,32.13
2019-03-21T07:11:17.857Z,34.13
2019-03-21T07:13:58.035Z,33.93
2019-03-21T07:16:38.015Z,32.43
2019-03-21T07:19:18.109Z,33.43
2019-03-21T07:21:58.029Z,36.83
2019-03-21T07:24:37.937Z,37.17
2019-03-21T07:27:18.181Z,36.17
2019-03-21T07:29:58.061Z,37.80
2019-03-21T07:32:38.266Z,39.80
2019-03-21T07:35:18.260Z,36.47
2019-03-21T07:37:58.421Z,33.70
2019-03-21T07:40:38.504Z,34.57
2019-03-21T07:43:18.749Z,40.10
2019-03-21T07:45:58.583Z,40.30
2019-03-21T07:48:38.555Z,37.27
2019-03-21T07:51:18.814Z,34.97
2019-03-21T07:53:59.007Z,38.80
2019-03-21T07:56:38.917Z,41.87
2019-03-21T07:59:19.133Z,35.10
2019-03-21T08:01:59.171Z,34.77
2019-03-21T08:04:39.205Z,38.43
2019-03-21T08:07:19.083Z,43.90
2019-03-21T08:09:59.036Z,38.10
2019-03-21T08:12:39.123Z,37.73
2019-03-21T08:15:18.983Z,41.10
2019-03-21T08:17:58.752Z,34.40
2019-03-21T08:20:38.910Z,40.23
2019-03-21T08:23:18.705Z,37.50
2019-03-21T08:25:58.720Z,40.23
2019-03-21T08:28:38.544Z,39.47
2019-03-21T08:31:18.344Z,41.53
2019-03-21T08:33:58.342Z,37.73
2019-03-21T08:36:38.369Z,38.83
2019-03-21T08:39:18.180Z,37.60
2019-03-21T08:41:58.389Z,36.50
2019-03-21T08:44:38.251Z,39.30
2019-03-21T08:47:18.474Z,41.60
2019-03-21T08:49:58.475Z,41.33
2019-03-21T08:52:38.322Z,36.37
2019-03-21T08:55:18.376Z,37.83
2019-03-21T08:57:58.370Z,36.03
2019-03-21T09:00:38.264Z,37.43
2019-03-21T09:03:18.264Z,33.47
2019-03-21T09:05:59.237Z,36.73
2019-03-21T09:08:40.383Z,37.00
2019-03-21T09:11:21.328Z,40.33
2019-03-21T09:14:01.993Z,36.23
2019-03-21T09:16:42.881Z,33.57
2019-03-21T09:19:24.522Z,37.60
2019-03-21T09:22:06.794Z,37.60
2019-03-21T09:24:47.752Z,36.20
2019-03-21T09:27:29.857Z,35.00
2019-03-21T09:30:10.393Z,40.13
2019-03-21T09:32:51.229Z,38.67
2019-03-21T09:35:33.598Z,37.03
2019-03-21T09:38:13.988Z,38.87
2019-03-21T09:40:54.740Z,36.00
2019-03-21T09:43:34.570Z,38.07
2019-03-21T09:46:14.665Z,35.40
2019-03-21T09:48:54.761Z,35.53
2019-03-21T09:51:35.068Z,37.20
2019-03-21T09:54:15.049Z,34.77
2019-03-21T09:56:55.182Z,32.13
2019-03-21T09:59:35.210Z,35.57
2019-03-21T10:02:15.460Z,30.27
2019-03-21T10:04:55.436Z,31.60
2019-03-21T10:07:35.611Z,34.37
2019-03-21T10:10:15.389Z,35.63
2019-03-21T10:15:59.586Z,28.57
2019-03-21T10:18:39.512Z,29.87
2019-03-21T10:21:19.496Z,33.10
2019-03-21T10:23:59.579Z,30.43
2019-03-21T10:26:39.284Z,26.60
2019-03-21T10:29:19.395Z,31.63
2019-03-21T10:31:59.707Z,29.10
2019-03-21T10:34:39.789Z,28.30
2019-03-21T10:37:19.836Z,26.47
2019-03-21T10:39:59.941Z,26.80
2019-03-21T10:42:40.212Z,27.20
2019-03-21T10:45:20.341Z,27.60
2019-03-21T10:48:00.529Z,29.20
2019-03-21T10:50:40.616Z,28.00
2019-03-21T10:53:20.586Z,26.67
2019-03-21T10:56:01.048Z,25.17
2019-03-21T10:58:41.205Z,27.37
2019-03-21T11:01:21.325Z,32.30
2019-03-21T11:04:01.192Z,29.10
2019-03-21T11:06:41.152Z,28.10
2019-03-21T11:09:21.227Z,28.53
2019-03-21T11:12:01.355Z,25.40
2019-03-21T11:14:41.414Z,23.97
2019-03-21T11:17:21.732Z,25.40
2019-03-21T11:20:01.861Z,26.67
2019-03-21T11:22:41.942Z,26.67
2019-03-21T11:25:21.904Z,23.90
2019-03-21T11:28:01.749Z,24.87
2019-03-21T11:30:41.717Z,21.60
2019-03-21T11:33:21.552Z,24.60
2019-03-21T11:36:01.306Z,21.20
2019-03-21T11:38:41.553Z,23.97
2019-03-21T11:41:21.327Z,23.60
2019-03-21T11:44:01.391Z,23.33
2019-03-21T11:46:41.376Z,24.37
2019-03-21T11:49:21.343Z,20.43
2019-03-21T11:52:01.270Z,22.30
2019-03-21T11:54:41.272Z,23.30
2019-03-21T11:57:21.346Z,24.83
2019-03-21T12:00:01.529Z,21.30
2019-03-21T12:02:41.507Z,21.77
2019-03-21T12:05:21.561Z,22.77
2019-03-21T12:08:01.572Z,25.70
2019-03-21T12:10:41.479Z,21.90
2019-03-21T12:13:21.528Z,24.73
2019-03-21T12:16:01.630Z,25.00
2019-03-21T12:18:41.630Z,22.70
2019-03-21T12:21:21.637Z,21.20
2019-03-21T12:24:01.418Z,21.97
2019-03-21T12:26:41.460Z,23.23
2019-03-21T12:29:21.348Z,27.37
2019-03-21T12:32:01.329Z,23.37
2019-03-21T12:34:41.286Z,21.90
2019-03-21T12:37:21.537Z,20.67
2019-03-21T12:40:01.549Z,22.30
2019-03-21T12:42:41.545Z,22.57
2019-03-21T12:45:21.421Z,25.70
2019-03-21T12:48:01.387Z,23.67
2019-03-21T12:50:41.401Z,23.03
2019-03-21T12:53:21.398Z,23.13
2019-03-21T12:56:01.390Z,22.63
2019-03-21T12:58:41.650Z,22.73
2019-03-21T13:01:21.262Z,22.07
2019-03-21T13:04:01.461Z,24.43
2019-03-21T13:06:41.418Z,23.77
2019-03-21T13:09:21.566Z,24.47
2019-03-21T13:12:01.521Z,26.77
2019-03-21T13:14:41.603Z,24.73
2019-03-21T13:17:21.622Z,24.27
2019-03-21T13:20:01.909Z,23.57
2019-03-21T13:22:52.521Z,24.27
2019-03-21T13:25:24.106Z,24.57
2019-03-21T13:28:04.144Z,23.20
2019-03-21T13:30:44.016Z,27.13
2019-03-21T13:33:23.899Z,26.40
2019-03-21T13:36:03.947Z,27.67
2019-03-21T13:38:44.102Z,23.30
2019-03-21T13:41:24.340Z,25.50
2019-03-21T13:44:04.337Z,25.60
2019-03-21T13:46:44.429Z,26.53
2019-03-21T13:49:24.328Z,29.93
2019-03-21T13:52:04.941Z,25.23
2019-03-21T13:54:45.652Z,23.00
2019-03-21T13:57:25.548Z,20.90
2019-03-21T14:00:05.712Z,23.00
2019-03-21T14:02:45.804Z,23.13
2019-03-21T14:05:25.773Z,23.20
2019-03-21T14:08:05.994Z,25.20
2019-03-21T14:10:45.790Z,22.13
2019-03-21T14:13:25.857Z,24.40
2019-03-21T14:16:05.778Z,23.63
2019-03-21T14:18:45.826Z,26.07
2019-03-21T14:21:25.894Z,21.13
2019-03-21T14:24:06.146Z,22.40
2019-03-21T14:26:46.159Z,24.03
2019-03-21T14:29:26.144Z,21.97
2019-03-21T14:32:06.054Z,23.30
2019-03-21T14:34:46.222Z,23.90
2019-03-21T14:37:26.035Z,25.23
2019-03-21T14:40:06.046Z,27.07
2019-03-21T14:42:46.385Z,24.97
2019-03-21T14:45:26.397Z,21.50
2019-03-21T14:48:06.301Z,21.07
2019-03-21T14:50:46.298Z,24.07
2019-03-21T14:53:29.155Z,22.67
2019-03-21T14:56:08.242Z,21.00
2019-03-21T14:58:48.289Z,24.70
2019-03-21T15:01:28.637Z,22.03
2019-03-21T15:04:08.536Z,21.90
2019-03-21T15:06:48.371Z,23.33
2019-03-21T15:09:28.513Z,22.20
2019-03-21T15:12:08.714Z,21.60
2019-03-21T15:14:48.692Z,22.40
2019-03-21T15:17:28.646Z,20.30
2019-03-21T15:20:08.750Z,21.07
2019-03-21T15:22:48.623Z,20.53
2019-03-21T15:25:28.642Z,22.70
2019-03-21T15:28:08.501Z,24.10
2019-03-21T15:30:48.288Z,22.80
2019-03-21T15:33:28.145Z,23.00
2019-03-21T15:36:08.032Z,25.50
2019-03-21T15:38:48.093Z,25.77
2019-03-21T15:41:27.941Z,24.23
2019-03-21T15:44:08.244Z,23.83
2019-03-21T15:46:48.041Z,25.67
2019-03-21T15:49:28.197Z,27.40
2019-03-21T15:52:08.146Z,27.03
2019-03-21T15:54:48.193Z,27.00
2019-03-21T15:57:28.092Z,26.87
2019-03-21T16:00:07.809Z,28.23
2019-03-21T16:02:47.888Z,33.23
2019-03-21T16:05:27.946Z,32.67
2019-03-21T16:08:09.158Z,32.53
2019-03-21T16:10:49.871Z,29.10
2019-03-21T16:13:30.204Z,33.30
2019-03-21T16:16:10.082Z,33.77
2019-03-21T16:18:50.200Z,36.30
2019-03-21T16:21:30.366Z,36.53
2019-03-21T16:24:10.161Z,34.63
2019-03-21T16:26:50.254Z,32.47
2019-03-21T16:29:30.051Z,37.00
2019-03-21T16:32:09.901Z,34.03
2019-03-21T16:34:49.794Z,39.53
2019-03-21T16:37:30.071Z,39.67
2019-03-21T16:40:10.066Z,35.97
2019-03-21T16:42:50.448Z,36.47
2019-03-21T16:45:30.790Z,37.33
2019-03-21T16:48:10.880Z,37.97
2019-03-21T16:50:50.756Z,36.67
2019-03-21T16:53:30.889Z,37.47
2019-03-21T16:56:10.925Z,35.17
2019-03-21T16:58:50.728Z,35.40
2019-03-21T17:01:30.901Z,38.87
2019-03-21T17:04:11.053Z,34.57
2019-03-21T17:06:51.172Z,36.67
2019-03-21T17:09:31.523Z,38.37
2019-03-21T17:12:11.278Z,38.90
2019-03-21T17:14:51.402Z,38.77
2019-03-21T17:17:31.288Z,36.00
2019-03-21T17:20:11.369Z,41.27
2019-03-21T17:22:51.329Z,40.30
2019-03-21T17:25:31.706Z,37.03
2019-03-21T17:28:11.447Z,36.40
2019-03-21T17:30:51.517Z,37.70
2019-03-21T17:33:31.482Z,37.90
2019-03-21T17:36:11.791Z,39.63
2019-03-21T17:38:51.821Z,40.37
2019-03-21T17:41:32.034Z,44.87
2019-03-21T17:44:12.005Z,36.83
2019-03-21T17:46:51.942Z,41.60
2019-03-21T17:49:31.973Z,39.97
2019-03-21T17:52:12.140Z,39.17
2019-03-21T17:54:51.977Z,40.80
2019-03-21T17:57:34.696Z,43.30
2019-03-21T18:00:14.260Z,39.93
2019-03-21T18:02:54.464Z,40.23
2019-03-21T18:05:34.513Z,45.17
2019-03-21T18:08:14.586Z,42.80
2019-03-21T18:10:57.243Z,40.97
2019-03-21T18:13:37.079Z,43.67
2019-03-21T18:16:18.691Z,41.50
2019-03-21T18:18:59.161Z,43.60
2019-03-21T18:21:38.978Z,47.53
2019-03-21T18:24:19.086Z,46.93
2019-03-21T18:26:58.974Z,48.20
2019-03-21T18:29:39.046Z,51.07
2019-03-21T18:32:18.714Z,47.50
2019-03-21T18:34:58.789Z,51.23
2019-03-21T18:37:38.511Z,53.00
2019-03-21T18:40:18.598Z,45.77
2019-03-21T18:42:58.500Z,51.00
2019-03-21T18:45:38.589Z,49.30
2019-03-21T18:48:18.408Z,52.63
2019-03-21T18:50:58.570Z,48.70
2019-03-21T18:53:38.450Z,52.17
2019-03-21T18:56:18.660Z,62.00
2019-03-21T18:58:58.486Z,53.63
2019-03-21T19:01:38.702Z,52.67
2019-03-21T19:04:18.939Z,53.67
2019-03-21T19:06:59.258Z,46.00
2019-03-21T19:09:39.123Z,48.53
2019-03-21T19:12:19.243Z,53.53
2019-03-21T19:14:59.507Z,50.13
2019-03-21T19:17:39.767Z,53.70
2019-03-21T19:20:19.576Z,59.67
2019-03-21T19:22:59.450Z,59.83
2019-03-21T19:25:39.428Z,56.87
2019-03-21T19:28:19.403Z,59.33
2019-03-21T19:30:59.264Z,51.17
2019-03-21T19:33:39.292Z,58.80
2019-03-21T19:36:19.126Z,52.07
2019-03-21T19:38:59.178Z,54.33
2019-03-21T19:41:39.373Z,55.30
2019-03-21T19:44:19.455Z,62.90
2019-03-21T19:47:01.461Z,54.47
2019-03-21T19:49:41.662Z,54.83
2019-03-21T19:52:21.470Z,55.10
2019-03-21T19:55:01.387Z,60.63
2019-03-21T19:57:41.334Z,50.10
2019-03-21T20:00:21.339Z,57.13
2019-03-21T20:03:01.420Z,56.50
2019-03-21T20:05:41.753Z,58.43
2019-03-21T20:08:21.671Z,55.23
2019-03-21T20:11:01.523Z,53.03
2019-03-21T20:13:41.638Z,53.90
2019-03-21T20:16:21.674Z,51.77
2019-03-21T20:19:01.517Z,54.43
2019-03-21T20:21:47.824Z,57.60
2019-03-21T20:24:23.476Z,58.37
2019-03-21T20:27:03.467Z,56.30
2019-03-21T20:29:43.515Z,51.47
2019-03-21T20:32:24.648Z,63.00
2019-03-21T20:35:04.572Z,61.17
2019-03-21T20:37:44.685Z,56.73
2019-03-21T20:40:24.928Z,55.23
2019-03-21T20:43:04.708Z,58.47
2019-03-21T20:45:44.660Z,58.73
2019-03-21T20:48:24.686Z,56.60
2019-03-21T20:51:04.582Z,53.20
2019-03-21T20:53:44.638Z,55.00
2019-03-21T20:56:24.950Z,55.33
2019-03-21T20:59:04.882Z,62.43
2019-03-21T21:01:45.099Z,59.83
2019-03-21T21:04:24.769Z,60.03
2019-03-21T21:07:04.931Z,68.80
2019-03-21T21:09:44.667Z,64.93
2019-03-21T21:12:24.757Z,65.90
2019-03-21T21:15:04.621Z,67.17
2019-03-21T21:17:44.662Z,64.93
2019-03-21T21:20:24.586Z,68.27
2019-03-21T21:23:04.568Z,59.40
2019-03-21T21:25:44.694Z,65.10
2019-03-21T21:28:24.471Z,66.93
2019-03-21T21:31:04.742Z,60.50
2019-03-21T21:33:44.664Z,62.23
2019-03-21T21:36:24.526Z,54.77
2019-03-21T21:39:04.506Z,57.53
2019-03-21T21:41:44.610Z,64.23
2019-03-21T21:44:24.584Z,69.57
2019-03-21T21:47:04.459Z,60.93
2019-03-21T21:49:44.612Z,65.47
2019-03-21T21:52:24.587Z,70.20
2019-03-21T21:55:04.452Z,68.40
2019-03-21T21:57:44.310Z,69.67
2019-03-21T22:00:24.391Z,67.37
2019-03-21T22:03:04.531Z,57.43
2019-03-21T22:05:44.450Z,77.67
2019-03-21T22:08:24.394Z,83.20
2019-03-21T22:11:04.327Z,72.90
2019-03-21T22:13:44.150Z,75.60
2019-03-21T22:16:24.317Z,68.40
2019-03-21T22:19:04.375Z,63.97
2019-03-21T22:21:44.142Z,69.33
2019-03-21T22:24:24.259Z,67.93
2019-03-21T22:27:04.358Z,76.60
2019-03-21T22:29:44.360Z,68.47
2019-03-21T22:32:24.596Z,64.50
2019-03-21T22:35:04.658Z,71.77
2019-03-21T22:37:44.662Z,66.43
2019-03-21T22:40:24.590Z,52.30
2019-03-21T22:43:04.628Z,63.60
2019-03-21T22:45:44.451Z,56.27
2019-03-21T22:48:24.583Z,62.57
2019-03-21T22:51:04.614Z,56.70
2019-03-21T22:53:44.444Z,56.30
2019-03-21T22:56:24.462Z,62.33
2019-03-21T22:59:04.313Z,59.37
2019-03-21T23:01:43.992Z,68.27
2019-03-21T23:04:23.989Z,61.83
2019-03-21T23:07:03.970Z,56.67
2019-03-21T23:09:44.050Z,52.90
2019-03-21T23:12:24.077Z,61.13
2019-03-21T23:15:04.145Z,63.37
2019-03-21T23:17:43.969Z,65.23
2019-03-21T23:20:24.017Z,57.00
2019-03-21T23:23:03.834Z,63.23
2019-03-21T23:25:43.843Z,62.70
2019-03-21T23:28:23.568Z,65.50
2019-03-21T23:31:03.696Z,57.33
2019-03-21T23:33:43.581Z,63.57
2019-03-21T23:36:23.733Z,63.03
2019-03-21T23:39:03.635Z,59.60
2019-03-21T23:41:43.354Z,71.77
2019-03-21T23:44:23.611Z,72.03
2019-03-21T23:47:03.572Z,81.10
2019-03-21T23:49:43.501Z,80.73
2019-03-21T23:52:23.561Z,94.90
2019-03-21T23:55:03.762Z,84.97
2019-03-21T23:57:43.494Z,98.23
